Time;durP1;ratioP1;P1;durP2;ratioP2;P2;SDS_P1;SDS_P2;PMS_P1;PMS_P2;Temp;Humidity;BMP_temperature;BMP_pressure;BME280_temperature;BME280_humidity;BME280_pressure;Samples;Min_cycle;Max_cycle;Signal;HPM_P1;HPM_P2
2022/08/28 00:01:20;;;;;;;6.30;5.70;;;26.20;1.00;;;;;;5039698;28;20031;-58
2022/08/28 00:03:46;;;;;;;7.82;5.85;;;26.20;1.00;;;;;;5037511;28;20037;-57
2022/08/28 00:06:12;;;;;;;7.63;5.88;;;26.10;1.00;;;;;;5040717;28;20033;-56
2022/08/28 00:08:37;;;;;;;7.07;6.25;;;26.10;1.00;;;;;;5031838;28;20356;-57
2022/08/28 00:11:03;;;;;;;7.60;6.18;;;26.20;1.00;;;;;;5032803;28;20426;-57
2022/08/28 00:13:30;;;;;;;6.47;5.88;;;26.20;1.00;;;;;;5031705;28;20021;-56
2022/08/28 00:15:59;;;;;;;7.93;5.80;;;26.10;1.00;;;;;;5032542;28;20453;-58
2022/08/28 00:18:27;;;;;;;7.45;6.75;;;26.20;1.00;;;;;;5031621;28;20108;-57
2022/08/28 00:20:53;;;;;;;6.65;5.93;;;26.10;1.00;;;;;;5032617;28;20022;-56
2022/08/28 00:23:20;;;;;;;7.13;6.45;;;26.20;1.00;;;;;;5031553;28;20964;-57
2022/08/28 00:25:46;;;;;;;6.88;6.25;;;26.20;1.00;;;;;;5050337;28;20029;-57
2022/08/28 00:28:12;;;;;;;7.43;6.63;;;26.30;1.00;;;;;;5033367;28;20036;-57
2022/08/28 00:30:42;;;;;;;8.45;6.32;;;26.20;1.00;;;;;;5022706;28;20375;-58
2022/08/28 00:33:33;;;;;;;7.50;6.45;;;26.10;1.00;;;;;;5031867;28;20049;-57
2022/08/28 00:36:00;;;;;;;8.82;7.35;;;26.10;1.00;;;;;;5029796;28;20038;-56
2022/08/28 00:38:26;;;;;;;8.32;6.30;;;26.00;1.00;;;;;;5034224;28;20466;-54
2022/08/28 00:40:55;;;;;;;7.80;6.90;;;26.00;1.00;;;;;;5042300;28;20033;-58
2022/08/28 00:43:35;;;;;;;7.18;6.50;;;26.00;1.00;;;;;;5026309;28;20467;-58
2022/08/28 00:46:05;;;;;;;8.02;7.03;;;26.00;1.00;;;;;;5034105;28;20483;-58
2022/08/28 00:48:31;;;;;;;7.97;7.20;;;26.00;1.00;;;;;;5029458;28;20135;-57
2022/08/28 00:53:42;;;;;;;;;;;25.90;1.00;;;;;;5031302;28;20091;-57
2022/08/28 00:56:11;;;;;;;8.38;7.57;;;25.90;1.00;;;;;;5033870;28;19909;-57
2022/08/28 00:58:38;;;;;;;11.15;8.05;;;25.80;1.00;;;;;;5039048;28;20033;-58
2022/08/28 01:01:12;;;;;;;8.15;7.43;;;25.80;1.00;;;;;;5030604;28;20112;-57
2022/08/28 01:03:37;;;;;;;8.70;7.75;;;25.90;1.00;;;;;;5031923;28;20122;-57
2022/08/28 01:06:04;;;;;;;9.60;7.72;;;25.80;1.00;;;;;;5033038;28;20454;-58
2022/08/28 01:08:31;;;;;;;8.82;7.82;;;25.80;1.00;;;;;;5030577;28;20029;-57
2022/08/28 01:11:00;;;;;;;8.55;7.75;;;25.80;1.00;;;;;;5040645;28;20036;-57
2022/08/28 01:13:30;;;;;;;9.18;7.95;;;25.80;1.00;;;;;;5028934;28;20386;-58
2022/08/28 01:16:00;;;;;;;10.60;8.75;;;25.80;1.00;;;;;;5031654;28;20494;-55
2022/08/28 01:18:26;;;;;;;8.20;7.38;;;25.80;1.00;;;;;;5031551;28;20080;-58
2022/08/28 01:21:17;;;;;;;8.38;7.47;;;25.80;1.00;;;;;;5030131;28;20108;-58
2022/08/28 01:24:05;;;;;;;9.50;8.13;;;25.70;1.00;;;;;;5031351;28;20352;-56
2022/08/28 01:26:30;;;;;;;8.82;7.15;;;25.70;1.00;;;;;;5027412;28;20057;-57
2022/08/28 01:28:58;;;;;;;11.55;7.82;;;25.70;1.00;;;;;;5033594;28;20068;-57
2022/08/28 01:31:27;;;;;;;9.48;8.48;;;25.60;1.00;;;;;;5034021;28;20022;-57
2022/08/28 01:33:53;;;;;;;10.70;8.32;;;25.60;1.00;;;;;;5031369;28;20033;-57
2022/08/28 01:36:19;;;;;;;9.85;8.25;;;25.50;1.00;;;;;;5041043;28;20348;-58
2022/08/28 01:38:49;;;;;;;10.77;9.50;;;25.50;1.00;;;;;;5031862;28;20422;-57
2022/08/28 01:41:15;;;;;;;14.55;10.65;;;25.60;1.00;;;;;;5041736;28;20037;-58
2022/08/28 01:43:42;;;;;;;11.27;9.73;;;25.30;1.00;;;;;;5030504;28;20112;-58
2022/08/28 01:46:10;;;;;;;9.57;8.57;;;25.30;1.00;;;;;;5030437;28;20479;-57
2022/08/28 01:48:39;;;;;;;8.98;8.07;;;25.40;1.00;;;;;;5031448;28;20025;-57
2022/08/28 01:51:06;;;;;;;9.20;7.50;;;25.40;1.00;;;;;;5024735;28;20111;-56
2022/08/28 01:53:32;;;;;;;8.98;8.02;;;25.40;1.00;;;;;;5031357;28;20470;-57
2022/08/28 01:55:59;;;;;;;9.40;8.50;;;25.30;1.00;;;;;;5037385;28;20120;-58
2022/08/28 01:58:26;;;;;;;9.20;8.10;;;25.40;1.00;;;;;;5031344;28;20375;-58
2022/08/28 02:00:52;;;;;;;8.43;7.72;;;25.40;1.00;;;;;;5036933;28;20112;-57
2022/08/28 02:03:18;;;;;;;11.07;7.60;;;25.40;1.00;;;;;;5037407;28;20112;-57
2022/08/28 02:05:44;;;;;;;7.65;6.95;;;25.40;1.00;;;;;;5030509;28;20038;-57
2022/08/28 02:08:11;;;;;;;7.57;6.63;;;25.40;1.00;;;;;;5030238;28;20021;-57
2022/08/28 02:10:43;;;;;;;9.25;7.60;;;25.40;1.00;;;;;;5049350;28;20029;-56
2022/08/28 02:13:11;;;;;;;7.40;6.22;;;25.50;1.00;;;;;;5034154;28;20024;-57
2022/08/28 02:15:37;;;;;;;8.50;6.65;;;25.50;1.00;;;;;;5044143;28;20108;-57
2022/08/28 02:18:04;;;;;;;7.90;7.10;;;25.50;1.00;;;;;;5038222;28;20026;-58
2022/08/28 02:20:32;;;;;;;7.72;6.82;;;25.50;1.00;;;;;;5033078;28;20116;-57
2022/08/28 02:23:01;;;;;;;8.52;7.50;;;25.50;1.00;;;;;;5034692;28;20026;-58
2022/08/28 02:25:27;;;;;;;8.10;7.30;;;25.40;1.00;;;;;;5034576;28;20079;-53
2022/08/28 02:27:54;;;;;;;8.63;7.53;;;25.50;1.00;;;;;;5032675;28;20091;-58
2022/08/28 02:30:20;;;;;;;9.65;7.43;;;25.40;1.00;;;;;;5033863;28;20053;-56
2022/08/28 02:32:46;;;;;;;8.75;7.25;;;25.40;1.00;;;;;;5034492;28;20049;-56
2022/08/28 02:35:18;;;;;;;9.10;6.97;;;25.40;1.00;;;;;;5032813;28;20025;-57
2022/08/28 02:37:44;;;;;;;8.45;6.38;;;25.40;1.00;;;;;;5034524;28;20105;-57
2022/08/28 02:40:13;;;;;;;8.32;7.18;;;25.40;1.00;;;;;;5037308;28;20104;-57
2022/08/28 02:42:39;;;;;;;7.88;7.10;;;25.40;1.00;;;;;;5036386;28;20030;-56
2022/08/28 02:45:10;;;;;;;8.15;6.53;;;25.40;1.00;;;;;;5037155;28;20475;-55
2022/08/28 02:47:38;;;;;;;8.48;7.28;;;25.40;1.00;;;;;;5038945;28;20022;-57
2022/08/28 02:50:06;;;;;;;6.75;6.05;;;25.30;1.00;;;;;;5033653;28;20029;-57
2022/08/28 02:52:33;;;;;;;7.15;6.32;;;25.30;1.00;;;;;;5034400;28;20013;-58
2022/08/28 02:54:59;;;;;;;7.28;6.57;;;25.30;1.00;;;;;;5035874;28;20025;-58
2022/08/28 02:57:37;;;;;;;7.43;6.65;;;25.30;1.00;;;;;;5034910;28;20353;-58
2022/08/28 03:00:11;;;;;;;6.50;6.00;;;25.30;1.00;;;;;;5034273;28;20419;-55
2022/08/28 03:02:37;;;;;;;7.10;6.40;;;25.30;1.00;;;;;;5020318;28;20009;-57
2022/08/28 03:05:03;;;;;;;6.40;5.80;;;25.30;1.00;;;;;;5036290;28;20037;-56
2022/08/28 03:07:29;;;;;;;7.57;6.78;;;25.30;1.00;;;;;;5034513;28;20017;-57
2022/08/28 03:09:55;;;;;;;9.23;8.27;;;25.30;1.00;;;;;;5034954;28;22571;-57
2022/08/28 03:12:24;;;;;;;13.70;10.98;;;25.30;1.00;;;;;;5039363;28;20040;-58
2022/08/28 03:28:57;;;;;;;28.90;20.33;;;25.20;1.00;;;;;;5022124;28;20386;-57
2022/08/28 03:31:26;;;;;;;24.70;19.17;;;25.10;1.00;;;;;;5028603;28;20268;-57
2022/08/28 03:33:53;;;;;;;24.00;18.80;;;25.10;1.00;;;;;;5023550;28;20064;-57
2022/08/28 03:36:22;;;;;;;21.92;17.40;;;25.10;1.00;;;;;;5033515;28;20026;-57
2022/08/28 03:38:49;;;;;;;19.88;14.85;;;25.10;1.00;;;;;;5035146;28;20033;-55
2022/08/28 03:41:17;;;;;;;14.02;12.15;;;25.10;1.00;;;;;;5032518;28;20036;-58
2022/08/28 03:43:44;;;;;;;15.75;13.00;;;25.10;1.00;;;;;;5032394;28;20100;-57
2022/08/28 03:46:13;;;;;;;13.10;10.45;;;25.10;1.00;;;;;;5031969;28;20136;-56
2022/08/28 03:48:39;;;;;;;11.77;10.57;;;25.10;1.00;;;;;;5036447;28;20029;-55
2022/08/28 03:51:10;;;;;;;11.07;9.85;;;25.10;1.00;;;;;;5033557;28;20029;-57
2022/08/28 03:53:36;;;;;;;12.70;11.40;;;25.10;1.00;;;;;;5037706;28;20029;-56
2022/08/28 03:56:10;;;;;;;11.30;10.02;;;25.00;1.00;;;;;;5019147;28;20029;-56
2022/08/28 03:58:37;;;;;;;12.48;10.30;;;25.10;1.00;;;;;;5037202;28;20021;-56
2022/08/28 04:01:03;;;;;;;11.18;9.57;;;25.00;1.00;;;;;;5033676;28;20040;-56
2022/08/28 04:03:29;;;;;;;11.02;9.48;;;25.00;1.00;;;;;;5032395;28;20093;-57
2022/08/28 04:05:54;;;;;;;10.55;9.45;;;25.00;1.00;;;;;;5032842;28;20040;-57
2022/08/28 04:08:21;;;;;;;10.63;9.13;;;25.00;1.00;;;;;;5032233;28;20018;-57
2022/08/28 04:10:47;;;;;;;10.77;9.30;;;25.00;1.00;;;;;;5032791;28;20099;-56
2022/08/28 04:13:15;;;;;;;10.35;9.15;;;24.90;1.00;;;;;;5031952;28;20418;-57
2022/08/28 04:15:41;;;;;;;13.00;8.85;;;24.90;1.00;;;;;;5032937;28;20083;-56
2022/08/28 04:19:02;;;;;;;10.00;8.93;;;24.90;1.00;;;;;;5032707;28;20063;-57
2022/08/28 04:21:28;;;;;;;9.63;8.57;;;24.90;1.00;;;;;;5028168;28;20080;-58
2022/08/28 04:23:54;;;;;;;8.88;7.97;;;24.80;1.00;;;;;;5031673;28;20072;-58
2022/08/28 04:26:23;;;;;;;10.00;7.43;;;24.90;1.00;;;;;;5030358;28;20034;-57
2022/08/28 04:28:49;;;;;;;10.82;7.70;;;24.90;1.00;;;;;;5032596;28;20033;-57
2022/08/28 04:31:16;;;;;;;13.00;9.02;;;24.90;1.00;;;;;;5031812;28;20045;-56
2022/08/28 04:33:42;;;;;;;11.15;8.85;;;24.90;1.00;;;;;;5032151;28;20045;-57
2022/08/28 04:36:13;;;;;;;10.95;8.35;;;24.90;1.00;;;;;;5032618;28;20040;-57
2022/08/28 04:38:40;;;;;;;7.95;7.03;;;24.80;1.00;;;;;;5028060;28;20029;-57
2022/08/28 04:41:09;;;;;;;7.47;6.78;;;24.80;1.00;;;;;;5031448;28;20025;-57
2022/08/28 04:43:35;;;;;;;6.90;6.25;;;24.90;1.00;;;;;;5032091;28;20026;-57
2022/08/28 04:46:10;;;;;;;9.98;6.97;;;24.80;1.00;;;;;;5031319;28;20025;-57
2022/08/28 04:48:42;;;;;;;7.40;6.20;;;24.80;1.00;;;;;;5032112;28;20025;-58
2022/08/28 04:51:11;;;;;;;8.57;6.82;;;24.80;1.00;;;;;;5031147;28;20418;-57
2022/08/28 04:53:37;;;;;;;8.90;6.82;;;24.80;1.00;;;;;;5032044;28;20471;-56
2022/08/28 04:56:05;;;;;;;7.70;6.60;;;24.80;1.00;;;;;;5042516;28;20385;-56
2022/08/28 04:58:33;;;;;;;7.93;6.47;;;24.70;1.00;;;;;;5031968;28;20059;-57
2022/08/28 05:01:04;;;;;;;8.55;7.68;;;24.80;1.00;;;;;;5043376;28;20094;-57
2022/08/28 05:03:29;;;;;;;8.93;7.80;;;24.80;1.00;;;;;;5039466;28;20029;-57
2022/08/28 05:05:55;;;;;;;9.65;8.65;;;24.80;1.00;;;;;;5030751;28;20075;-58
2022/08/28 05:08:23;;;;;;;11.10;9.63;;;24.80;1.00;;;;;;5031884;28;20032;-56
2022/08/28 05:10:49;;;;;;;10.05;8.85;;;24.80;1.00;;;;;;5042074;28;20017;-56
2022/08/28 05:13:17;;;;;;;8.93;7.88;;;24.80;1.00;;;;;;5033473;28;20025;-57
2022/08/28 05:15:45;;;;;;;8.10;7.30;;;24.80;1.00;;;;;;5031060;28;20033;-58
2022/08/28 05:18:14;;;;;;;7.35;6.65;;;24.80;1.00;;;;;;5031610;28;20044;-55
2022/08/28 05:20:42;;;;;;;8.20;6.70;;;24.80;1.00;;;;;;5030830;28;20017;-58
2022/08/28 05:23:12;;;;;;;8.40;7.30;;;24.80;1.00;;;;;;5031631;28;20074;-58
2022/08/28 05:25:42;;;;;;;7.47;6.70;;;24.80;1.00;;;;;;5030878;28;20104;-58
2022/08/28 05:28:10;;;;;;;7.30;6.32;;;24.80;1.00;;;;;;5048727;28;20105;-57
2022/08/28 05:30:37;;;;;;;6.38;5.75;;;24.80;1.00;;;;;;5024134;28;20051;-57
2022/08/28 05:33:04;;;;;;;7.90;6.63;;;24.80;1.00;;;;;;5023637;28;20092;-56
2022/08/28 05:35:33;;;;;;;7.30;6.60;;;24.70;1.00;;;;;;5031522;28;20029;-58
2022/08/28 05:37:58;;;;;;;7.05;6.38;;;24.80;1.00;;;;;;5031045;28;20033;-58
2022/08/28 05:40:24;;;;;;;8.23;7.10;;;24.80;1.00;;;;;;5031551;28;20028;-57
2022/08/28 05:42:50;;;;;;;7.10;5.97;;;24.80;1.00;;;;;;5033921;28;20029;-58
2022/08/28 05:45:16;;;;;;;6.60;6.00;;;24.80;1.00;;;;;;5031485;28;20029;-58
2022/08/28 05:47:42;;;;;;;8.35;6.85;;;24.80;1.00;;;;;;5036645;28;20113;-53
2022/08/28 05:50:12;;;;;;;7.93;7.13;;;24.80;1.00;;;;;;5035390;28;20036;-58
2022/08/28 05:52:41;;;;;;;8.18;7.05;;;24.80;1.00;;;;;;5037610;28;20048;-59
2022/08/28 05:55:08;;;;;;;7.80;6.97;;;24.90;1.00;;;;;;5034479;28;20173;-55
2022/08/28 05:57:34;;;;;;;7.75;6.38;;;24.90;1.00;;;;;;5033283;28;20025;-58
2022/08/28 06:00:01;;;;;;;7.40;6.70;;;24.90;1.00;;;;;;5040886;28;20021;-58
2022/08/28 06:02:26;;;;;;;7.63;6.88;;;24.90;1.00;;;;;;5034560;28;20029;-56
2022/08/28 06:04:53;;;;;;;6.18;5.63;;;24.90;1.00;;;;;;5035180;28;20037;-56
2022/08/28 06:07:19;;;;;;;9.15;7.50;;;25.00;1.00;;;;;;5048352;28;20017;-58
2022/08/28 06:09:54;;;;;;;9.27;7.47;;;24.90;1.00;;;;;;5035158;28;20036;-57
2022/08/28 06:12:20;;;;;;;10.38;7.95;;;25.00;1.00;;;;;;5034567;28;20025;-57
2022/08/28 06:14:46;;;;;;;9.07;8.27;;;25.00;1.00;;;;;;5035028;28;20025;-59
2022/08/28 06:17:11;;;;;;;10.13;9.07;;;24.80;1.00;;;;;;5034779;28;20355;-58
2022/08/28 06:19:37;;;;;;;10.23;8.38;;;24.80;1.00;;;;;;5037896;28;20031;-58
2022/08/28 06:22:04;;;;;;;12.43;9.52;;;24.70;1.00;;;;;;5039791;28;20027;-58
2022/08/28 06:24:31;;;;;;;9.73;8.75;;;24.70;1.00;;;;;;5034597;28;20402;-58
2022/08/28 06:26:58;;;;;;;14.77;9.35;;;24.80;1.00;;;;;;5033964;28;20025;-57
2022/08/28 06:29:24;;;;;;;10.20;8.60;;;24.90;1.00;;;;;;5034821;28;20022;-57
2022/08/28 06:31:55;;;;;;;8.90;8.02;;;25.00;1.00;;;;;;5038431;28;20049;-58
2022/08/28 06:34:21;;;;;;;12.55;9.57;;;25.00;1.00;;;;;;5034360;28;20017;-57
2022/08/28 06:36:47;;;;;;;12.07;9.55;;;25.00;1.00;;;;;;5039336;28;20196;-57
2022/08/28 06:39:13;;;;;;;11.52;10.18;;;24.90;1.00;;;;;;5032808;28;20037;-58
2022/08/28 06:41:42;;;;;;;11.93;10.70;;;24.90;1.00;;;;;;5029916;28;20117;-57
2022/08/28 06:44:13;;;;;;;12.13;9.70;;;24.90;1.00;;;;;;5034505;28;20038;-56
2022/08/28 06:46:40;;;;;;;12.55;11.18;;;25.00;1.00;;;;;;5033499;28;20026;-58
2022/08/28 06:56:07;;;;;;;14.98;13.00;;;25.00;1.00;;;;;;5024896;28;20383;-58
2022/08/28 06:58:39;;;;;;;14.27;11.90;;;25.10;1.00;;;;;;5021600;28;20036;-57
2022/08/28 07:01:15;;;;;;;14.25;12.75;;;25.10;1.00;;;;;;5038857;28;20037;-58
2022/08/28 07:03:41;;;;;;;16.63;13.98;;;25.20;1.00;;;;;;5034160;28;20029;-56
2022/08/28 07:06:08;;;;;;;15.50;13.68;;;25.20;1.00;;;;;;5039203;28;20025;-57
2022/08/28 07:08:35;;;;;;;13.23;11.88;;;25.20;1.00;;;;;;5032578;28;20037;-58
2022/08/28 07:11:17;;;;;;;13.93;11.68;;;25.30;1.00;;;;;;5039836;28;20032;-57
2022/08/28 07:13:44;;;;;;;12.70;11.18;;;25.30;1.00;;;;;;5034988;28;20427;-58
2022/08/28 07:16:12;;;;;;;11.50;10.15;;;25.30;1.00;;;;;;5038802;28;20129;-58
2022/08/28 07:18:38;;;;;;;15.05;13.25;;;25.30;1.00;;;;;;5033968;28;20040;-55
2022/08/28 07:21:04;;;;;;;14.57;12.85;;;25.20;1.00;;;;;;5040320;28;20025;-57
2022/08/28 07:23:31;;;;;;;15.98;13.07;;;25.20;1.00;;;;;;5033669;28;20043;-59
2022/08/28 07:25:57;;;;;;;16.00;14.30;;;25.30;1.00;;;;;;5027291;28;20491;-58
2022/08/28 07:28:23;;;;;;;16.63;13.80;;;25.30;1.00;;;;;;5032741;28;20104;-54
2022/08/28 07:31:01;;;;;;;13.95;12.32;;;25.30;1.00;;;;;;5041863;28;20029;-58
2022/08/28 07:33:27;;;;;;;16.38;13.75;;;25.40;1.00;;;;;;5033399;28;20513;-58
2022/08/28 07:35:55;;;;;;;14.05;12.35;;;25.20;1.00;;;;;;5042198;28;20029;-58
2022/08/28 07:38:21;;;;;;;14.02;12.52;;;25.40;1.00;;;;;;5033698;28;20014;-56
2022/08/28 07:40:47;;;;;;;17.02;14.43;;;25.40;1.00;;;;;;5042396;28;20474;-58
2022/08/28 07:46:02;;;;;;;;;;;25.40;1.00;;;;;;5043589;28;20067;-58
2022/08/28 07:48:28;;;;;;;15.65;12.88;;;25.40;1.00;;;;;;5031312;28;19983;-56
2022/08/28 07:50:53;;;;;;;14.23;12.80;;;25.50;1.00;;;;;;5036468;28;20029;-57
2022/08/28 07:53:20;;;;;;;16.58;14.38;;;25.50;1.00;;;;;;5033329;28;20113;-58
2022/08/28 07:55:47;;;;;;;14.27;12.13;;;25.50;1.00;;;;;;5032494;28;20120;-56
2022/08/28 07:58:13;;;;;;;15.23;12.23;;;25.60;1.00;;;;;;5033071;28;20030;-58
2022/08/28 08:00:38;;;;;;;13.35;11.95;;;25.60;1.00;;;;;;5037577;28;20021;-57
2022/08/28 08:03:04;;;;;;;13.95;11.90;;;25.60;1.00;;;;;;5038429;28;20436;-57
2022/08/28 08:05:30;;;;;;;11.45;10.02;;;25.60;1.00;;;;;;5032193;28;20034;-58
2022/08/28 08:07:55;;;;;;;12.05;10.85;;;25.70;1.00;;;;;;5031753;28;20463;-58
2022/08/28 08:10:22;;;;;;;15.10;11.98;;;25.70;1.00;;;;;;5032802;28;20503;-57
2022/08/28 08:12:47;;;;;;;12.55;11.25;;;25.80;1.00;;;;;;5042328;28;20029;-58
2022/08/28 08:15:13;;;;;;;12.60;11.30;;;25.80;1.00;;;;;;5022430;28;20371;-58
2022/08/28 08:17:39;;;;;;;18.10;13.05;;;25.80;1.00;;;;;;5031926;28;20021;-58
2022/08/28 08:20:07;;;;;;;14.65;12.95;;;25.80;1.00;;;;;;5026604;28;20124;-58
2022/08/28 08:22:33;;;;;;;14.57;12.52;;;25.80;1.00;;;;;;5045172;28;20029;-57
2022/08/28 08:24:59;;;;;;;15.75;14.15;;;25.80;1.00;;;;;;5031013;28;20122;-58
2022/08/28 08:27:25;;;;;;;13.80;12.13;;;25.80;1.00;;;;;;5038298;28;20140;-58
2022/08/28 08:29:50;;;;;;;15.60;13.38;;;25.90;1.00;;;;;;5032510;28;20116;-58
2022/08/28 08:32:16;;;;;;;14.60;12.95;;;25.90;1.00;;;;;;5031321;28;20411;-58
2022/08/28 08:34:48;;;;;;;13.85;12.23;;;26.00;1.00;;;;;;5032318;28;20037;-58
2022/08/28 08:37:14;;;;;;;14.35;12.95;;;26.00;1.00;;;;;;5030360;28;20024;-59
2022/08/28 08:39:41;;;;;;;13.45;12.00;;;26.10;1.00;;;;;;5031037;28;20473;-58
2022/08/28 08:42:18;;;;;;;13.38;12.05;;;26.10;1.00;;;;;;5032315;28;20039;-58
2022/08/28 08:44:46;;;;;;;17.77;14.82;;;26.20;1.00;;;;;;5032301;28;20037;-58
2022/08/28 08:47:23;;;;;;;14.43;12.93;;;26.20;1.00;;;;;;5033389;28;20024;-57
2022/08/28 08:50:04;;;;;;;13.43;11.82;;;26.10;1.00;;;;;;5018737;28;20087;-58
2022/08/28 08:52:36;;;;;;;14.82;13.02;;;26.30;1.00;;;;;;5036383;28;20036;-58
2022/08/28 08:55:25;;;;;;;16.67;13.70;;;26.30;1.00;;;;;;5031801;28;20041;-59
2022/08/28 08:58:05;;;;;;;14.88;13.27;;;26.20;1.00;;;;;;5025688;28;20025;-57
2022/08/28 09:01:04;;;;;;;12.90;11.60;;;26.40;1.00;;;;;;5025797;28;20482;-56
2022/08/28 09:07:36;;;;;;;14.25;12.13;;;26.40;1.00;;;;;;5023964;28;20122;-58
2022/08/28 09:10:04;;;;;;;15.07;12.07;;;26.50;1.00;;;;;;5021573;28;20040;-60
2022/08/28 09:12:42;;;;;;;17.30;13.85;;;26.50;1.00;;;;;;5029668;28;20467;-57
2022/08/28 09:18:33;;;;;;;13.75;12.35;;;26.60;1.00;;;;;;5023990;28;20127;-58
2022/08/28 09:20:59;;;;;;;15.73;13.30;;;26.70;1.00;;;;;;5030448;28;20040;-58
2022/08/28 09:23:27;;;;;;;13.50;12.10;;;26.60;1.00;;;;;;5031342;28;20095;-59
2022/08/28 09:26:10;;;;;;;13.85;12.35;;;26.70;1.00;;;;;;5031418;28;20040;-58
2022/08/28 09:28:39;;;;;;;13.77;12.27;;;26.80;1.00;;;;;;5032117;28;20025;-58
2022/08/28 09:31:14;;;;;;;12.63;11.32;;;26.80;1.00;;;;;;5036459;28;20025;-57
2022/08/28 09:33:45;;;;;;;12.07;10.75;;;26.90;1.00;;;;;;5032170;28;20041;-58
2022/08/28 09:36:28;;;;;;;11.93;10.73;;;26.90;1.00;;;;;;5031647;28;20029;-58
2022/08/28 09:39:12;;;;;;;11.50;10.02;;;27.00;1.00;;;;;;5030605;28;20045;-58
2022/08/28 09:44:24;;;;;;;10.30;9.30;;;27.10;1.00;;;;;;5030732;28;20361;-58
2022/08/28 09:46:53;;;;;;;13.52;12.13;;;27.20;1.00;;;;;;5042788;28;20064;-58
2022/08/28 09:49:29;;;;;;;11.98;9.77;;;27.20;1.00;;;;;;5030630;28;20029;-58
2022/08/28 09:51:58;;;;;;;11.40;9.02;;;27.20;1.00;;;;;;5018047;28;20060;-57
2022/08/28 09:54:26;;;;;;;11.80;10.60;;;27.30;1.00;;;;;;5032406;28;20455;-58
2022/08/28 09:56:53;;;;;;;12.00;9.55;;;27.30;1.00;;;;;;5031248;28;20030;-58
2022/08/28 09:59:22;;;;;;;7.63;6.93;;;27.30;1.00;;;;;;5030627;28;20034;-58
2022/08/28 10:02:10;;;;;;;8.70;7.43;;;27.40;1.00;;;;;;5031302;28;20029;-57
2022/08/28 10:04:54;;;;;;;10.02;8.57;;;27.40;1.00;;;;;;5028984;28;20029;-59
2022/08/28 10:07:35;;;;;;;;;;;27.40;1.00;;;;;;5028188;28;20538;-58
2022/08/28 10:10:19;;;;;;;8.63;7.57;;;27.50;1.00;;;;;;5038170;28;19916;-58
2022/08/28 10:13:00;;;;;;;8.02;7.13;;;27.50;1.00;;;;;;5024753;28;20475;-59
2022/08/28 10:15:29;;;;;;;7.10;6.40;;;27.50;1.00;;;;;;5030041;28;20487;-58
2022/08/28 10:18:24;;;;;;;8.40;7.45;;;27.70;1.00;;;;;;5030213;28;20034;-59
2022/08/28 10:21:00;;;;;;;7.60;5.63;;;27.70;1.00;;;;;;5031484;28;20034;-58
2022/08/28 10:23:45;;;;;;;6.95;6.35;;;27.70;1.00;;;;;;5034600;28;20362;-57
2022/08/28 10:26:41;;;;;;;8.15;6.72;;;27.70;1.00;;;;;;5022847;28;20076;-59
2022/08/28 10:29:22;;;;;;;7.72;6.22;;;27.80;1.00;;;;;;5030206;28;20120;-59
2022/08/28 10:31:59;;;;;;;6.97;6.25;;;27.90;1.00;;;;;;5031074;28;20033;-58
2022/08/28 10:34:43;;;;;;;6.07;5.47;;;27.90;1.00;;;;;;5023476;28;20033;-57
2022/08/28 10:37:33;;;;;;;6.25;5.65;;;28.00;1.00;;;;;;5032781;28;20104;-57
2022/08/28 10:40:14;;;;;;;6.20;5.28;;;28.00;1.00;;;;;;5034533;28;20063;-59
2022/08/28 10:43:01;;;;;;;6.97;5.05;;;28.10;1.00;;;;;;5027148;28;20025;-59
2022/08/28 10:45:29;;;;;;;5.28;4.72;;;28.20;1.00;;;;;;5037764;28;20124;-59
2022/08/28 10:48:00;;;;;;;6.63;6.03;;;28.20;1.00;;;;;;5039314;28;20493;-59
2022/08/28 10:50:46;;;;;;;5.30;4.88;;;28.40;1.00;;;;;;5038630;28;20490;-58
2022/08/28 10:53:17;;;;;;;5.57;5.00;;;28.50;1.00;;;;;;5040927;28;20068;-58
2022/08/28 10:55:58;;;;;;;5.30;4.72;;;28.50;1.00;;;;;;5036909;28;20032;-58
2022/08/28 10:58:25;;;;;;;4.90;4.47;;;28.50;1.00;;;;;;5042399;28;20156;-57
2022/08/28 11:00:59;;;;;;;5.18;4.68;;;28.40;1.00;;;;;;5036583;28;20025;-58
2022/08/28 11:03:30;;;;;;;6.50;4.55;;;28.50;1.00;;;;;;5033400;28;20040;-58
2022/08/28 11:06:05;;;;;;;5.20;4.68;;;28.60;1.00;;;;;;5034012;28;20041;-58
2022/08/28 11:08:34;;;;;;;4.72;4.32;;;28.80;1.00;;;;;;5033453;28;20073;-58
2022/08/28 11:11:02;;;;;;;4.90;4.50;;;28.80;1.00;;;;;;5033963;28;20569;-59
2022/08/28 11:13:52;;;;;;;6.18;5.05;;;28.80;1.00;;;;;;5033484;28;20072;-58
2022/08/28 11:16:22;;;;;;;6.50;4.55;;;28.80;1.00;;;;;;5032767;28;20171;-59
2022/08/28 11:18:55;;;;;;;4.32;3.92;;;28.90;1.00;;;;;;5033064;28;20029;-58
2022/08/28 11:21:28;;;;;;;4.50;4.20;;;29.00;1.00;;;;;;5033846;28;20091;-57
2022/08/28 11:24:00;;;;;;;4.47;4.07;;;29.10;1.00;;;;;;5030436;28;20635;-58
2022/08/28 11:29:59;;;;;;;5.03;4.40;;;28.90;1.00;;;;;;5045840;28;20174;-59
2022/08/28 11:32:30;;;;;;;4.28;3.95;;;29.10;1.00;;;;;;5031659;28;20075;-59
2022/08/28 11:35:01;;;;;;;4.38;4.03;;;29.40;1.00;;;;;;5034667;28;20030;-58
2022/08/28 11:37:39;;;;;;;4.88;4.28;;;29.50;1.00;;;;;;5032900;28;20013;-59
2022/08/28 11:40:17;;;;;;;5.15;3.75;;;29.70;1.00;;;;;;5033729;28;20017;-58
2022/08/28 11:42:47;;;;;;;3.88;3.67;;;29.90;1.00;;;;;;5034100;28;20040;-58
2022/08/28 11:45:41;;;;;;;4.28;3.78;;;29.90;1.00;;;;;;5032326;28;20033;-58
2022/08/28 11:48:28;;;;;;;4.53;4.13;;;29.80;1.00;;;;;;5020997;28;20399;-58
2022/08/28 11:50:56;;;;;;;4.07;3.67;;;29.90;1.00;;;;;;5033394;28;20021;-59
2022/08/28 11:53:46;;;;;;;3.80;3.55;;;30.00;1.00;;;;;;5037363;28;20036;-59
2022/08/28 11:56:26;;;;;;;4.95;4.60;;;30.10;1.00;;;;;;5033333;28;20112;-59
2022/08/28 11:59:19;;;;;;;4.28;3.97;;;30.30;1.00;;;;;;5032498;28;20030;-57
2022/08/28 12:01:45;;;;;;;4.57;4.10;;;30.50;1.00;;;;;;5033068;28;20036;-57
2022/08/28 12:04:16;;;;;;;4.05;3.75;;;30.70;1.00;;;;;;5034477;28;20025;-59
2022/08/28 12:06:46;;;;;;;5.93;4.20;;;31.00;1.00;;;;;;5035624;28;20076;-59
2022/08/28 12:09:37;;;;;;;4.25;3.67;;;31.30;1.00;;;;;;5032108;28;20047;-59
2022/08/28 12:12:21;;;;;;;3.50;3.20;;;32.00;1.00;;;;;;5032935;28;20057;-60
2022/08/28 12:14:46;;;;;;;4.28;3.88;;;34.30;1.00;;;;;;5045442;28;20108;-59
2022/08/28 12:17:21;;;;;;;4.07;3.78;;;36.40;1.00;;;;;;5032748;28;20075;-59
2022/08/28 12:19:54;;;;;;;4.85;4.45;;;38.90;1.00;;;;;;5045441;28;20037;-59
2022/08/28 12:22:22;;;;;;;;;;;41.50;1.00;;;;;;5033322;28;20060;-57
2022/08/28 12:24:56;;;;;;;4.35;4.07;;;42.00;1.00;;;;;;5031501;28;20008;-57
2022/08/28 12:27:29;;;;;;;4.72;4.43;;;42.40;1.00;;;;;;5033043;28;20028;-57
2022/08/28 12:30:00;;;;;;;4.50;4.20;;;42.20;1.00;;;;;;5040836;28;20025;-57
2022/08/28 12:32:35;;;;;;;4.50;4.20;;;41.20;1.00;;;;;;5031388;28;20037;-57
2022/08/28 12:35:01;;;;;;;4.72;4.43;;;38.60;1.00;;;;;;5032356;28;20037;-58
2022/08/28 12:37:38;;;;;;;5.05;4.75;;;38.80;1.00;;;;;;5036291;28;20029;-58
2022/08/28 12:40:18;;;;;;;5.40;4.97;;;38.00;1.00;;;;;;5034746;28;20025;-58
2022/08/28 12:42:54;;;;;;;4.80;4.50;;;37.50;1.00;;;;;;5031923;28;20220;-58
2022/08/28 12:45:38;;;;;;;5.82;5.43;;;37.30;1.00;;;;;;5031418;28;20514;-58
2022/08/28 12:48:23;;;;;;;5.88;5.38;;;37.20;1.00;;;;;;5031421;28;20036;-58
2022/08/28 12:50:57;;;;;;;5.10;4.90;;;37.60;1.00;;;;;;5021197;28;20029;-58
2022/08/28 12:53:22;;;;;;;6.65;5.25;;;38.10;1.00;;;;;;5030128;28;20052;-58
2022/08/28 12:55:48;;;;;;;5.28;4.97;;;39.30;1.00;;;;;;5032037;28;20461;-58
2022/08/28 12:58:31;;;;;;;5.60;5.22;;;38.90;1.00;;;;;;5040393;28;20029;-58
2022/08/28 13:01:05;;;;;;;4.88;4.57;;;39.30;1.00;;;;;;5034034;28;20025;-58
2022/08/28 13:03:32;;;;;;;5.03;4.70;;;39.70;1.00;;;;;;5031186;28;20041;-57
2022/08/28 13:06:08;;;;;;;5.05;4.65;;;39.60;1.00;;;;;;5036041;28;20029;-58
2022/08/28 13:08:35;;;;;;;5.35;4.95;;;41.90;1.00;;;;;;5036169;28;20029;-57
2022/08/28 13:11:02;;;;;;;4.78;4.47;;;42.90;1.00;;;;;;5031832;28;20047;-57
2022/08/28 13:13:45;;;;;;;5.28;5.07;;;44.20;1.00;;;;;;5030971;28;20451;-58
2022/08/28 13:16:32;;;;;;;6.00;4.95;;;44.40;1.00;;;;;;5030450;28;20120;-57
2022/08/28 13:19:03;;;;;;;5.50;5.13;;;45.40;1.00;;;;;;5031165;28;20111;-57
2022/08/28 13:21:36;;;;;;;5.40;5.18;;;46.50;1.00;;;;;;5027771;28;20041;-58
2022/08/28 13:24:44;;;;;;;6.03;5.70;;;47.30;1.00;;;;;;5029889;28;20022;-57
2022/08/28 13:27:12;;;;;;;7.18;5.78;;;46.80;1.00;;;;;;5009409;28;20124;-57
2022/08/28 13:30:07;;;;;;;5.90;5.40;;;46.40;1.00;;;;;;5048525;28;20437;-57
2022/08/28 13:32:38;;;;;;;6.00;5.60;;;46.70;1.00;;;;;;5022440;28;20504;-57
2022/08/28 13:35:12;;;;;;;7.90;5.80;;;46.80;1.00;;;;;;5031743;28;20022;-57
2022/08/28 13:38:02;;;;;;;5.85;5.55;;;47.30;1.00;;;;;;5020179;28;20593;-57
2022/08/28 13:40:50;;;;;;;6.20;5.80;;;47.80;1.00;;;;;;5035700;28;20025;-58
2022/08/28 13:43:17;;;;;;;5.20;4.95;;;46.90;1.00;;;;;;5038350;28;20036;-57
2022/08/28 13:45:46;;;;;;;5.55;5.25;;;46.70;1.00;;;;;;5034409;28;20037;-57
2022/08/28 13:48:23;;;;;;;5.20;5.00;;;47.20;1.00;;;;;;5030739;28;20029;-57
2022/08/28 13:51:11;;;;;;;5.28;4.97;;;46.80;1.00;;;;;;5031577;28;20030;-58
2022/08/28 13:54:21;;;;;;;5.45;4.95;;;45.50;1.00;;;;;;5040161;28;20091;-58